Terminal Aerodrome Forecast
Issued by NWS San Angelo, TX

Home | Current Version | Previous Version | Text Only | Print | Product List | Glossary On
Versions: 1 2 3 4 5 6 7 8 9 10 11 12 13 14 15 16 17 18 19 20 21 22
000
FTUS44 KSJT 192000 AAA
TAFABI
TAF AMD
KABI 192036Z 1921/2018 14009KT P6SM SCT040 BKN150
     FM200900 15007KT P6SM OVC010
     FM201500 16007KT P6SM BKN015=

USA.gov is the U.S. government's official web portal to all federal, state and local government web resources and services.